createdAt,value
2022-11-12T00:01:21.571Z,19181.81
2022-11-12T00:03:49.950Z,19173.69
2022-11-12T00:06:18.085Z,19179.78
2022-11-12T00:08:46.174Z,19161.50
2022-11-12T00:11:14.284Z,19210.28
2022-11-12T00:13:42.387Z,19181.81
2022-11-12T00:16:12.085Z,19187.91
2022-11-12T00:18:40.185Z,19161.50
2022-11-12T00:21:08.301Z,19228.56
2022-11-12T00:23:36.420Z,19206.22
2022-11-12T00:26:04.634Z,19179.78
2022-11-12T00:28:37.748Z,19159.47
2022-11-12T00:31:13.107Z,19159.47
2022-11-12T00:33:42.512Z,19175.72
2022-11-12T00:36:11.393Z,19163.53
2022-11-12T00:38:39.700Z,19175.72
2022-11-12T00:41:08.391Z,19163.53
2022-11-12T00:43:36.595Z,19163.53
2022-11-12T00:46:05.219Z,19163.53
2022-11-12T00:48:34.690Z,19126.97
2022-11-12T00:51:05.695Z,19120.88
2022-11-12T00:53:34.264Z,19112.75
2022-11-12T00:56:04.467Z,19131.03
2022-11-12T00:58:33.768Z,19094.44
2022-11-12T01:01:10.326Z,19086.31
2022-11-12T01:03:41.358Z,19080.22
2022-11-12T01:06:13.288Z,19086.31
2022-11-12T01:08:42.910Z,19090.38
2022-11-12T01:11:13.925Z,19129.00
2022-11-12T01:13:45.727Z,19122.91
2022-11-12T01:16:16.331Z,19102.56
2022-11-12T01:18:45.976Z,19126.97
2022-11-12T01:21:15.680Z,19102.56
2022-11-12T01:23:44.437Z,19114.78
2022-11-12T01:26:16.127Z,19114.78
2022-11-12T01:28:44.946Z,19098.50
2022-11-12T01:31:16.292Z,19102.56
2022-11-12T01:33:49.888Z,19118.84
2022-11-12T01:36:20.003Z,19094.44
2022-11-12T01:38:49.329Z,19122.91
2022-11-12T01:41:21.662Z,19133.06
2022-11-12T01:44:05.085Z,19126.97
2022-11-12T01:46:36.024Z,19120.88
2022-11-12T01:49:13.230Z,19106.66
2022-11-12T01:51:47.982Z,19063.97
2022-11-12T01:54:21.591Z,19106.66
2022-11-12T01:56:52.412Z,19084.28
2022-11-12T01:59:30.971Z,19120.88
2022-11-12T02:01:59.679Z,19094.44
2022-11-12T02:04:30.523Z,19129.00
2022-11-12T02:07:00.186Z,19110.72
2022-11-12T02:09:29.138Z,19086.31
2022-11-12T02:11:57.492Z,19092.41
2022-11-12T02:14:24.659Z,19110.72
2022-11-12T02:16:53.027Z,19072.09
2022-11-12T02:19:21.143Z,19066.00
2022-11-12T02:21:50.591Z,19090.38
2022-11-12T02:24:36.808Z,19070.06
2022-11-12T02:27:07.096Z,19059.91
2022-11-12T02:29:35.190Z,19090.38
2022-11-12T02:32:03.316Z,19070.06
2022-11-12T02:34:31.382Z,19088.34
2022-11-12T02:37:00.835Z,19076.16
2022-11-12T02:39:28.920Z,19090.38
2022-11-12T02:41:57.093Z,19078.19
2022-11-12T02:44:25.295Z,19096.47
2022-11-12T02:46:53.425Z,19080.22
2022-11-12T02:49:21.485Z,19090.38
2022-11-12T02:51:49.604Z,19102.56
2022-11-12T02:54:19.050Z,19094.44
2022-11-12T02:56:47.157Z,19110.72
2022-11-12T02:59:15.287Z,19106.66
2022-11-12T03:01:43.467Z,19129.00
2022-11-12T03:04:11.574Z,19068.03
2022-11-12T03:06:39.943Z,19104.59
2022-11-12T03:09:08.156Z,19088.34
2022-11-12T03:11:37.587Z,19112.75
2022-11-12T03:14:06.534Z,19082.25
2022-11-12T03:16:34.621Z,19074.13
2022-11-12T03:19:03.032Z,19076.16
2022-11-12T03:21:31.151Z,19086.31
2022-11-12T03:23:59.278Z,19063.97
2022-11-12T03:26:30.537Z,19074.13
2022-11-12T03:29:02.566Z,19053.81
2022-11-12T03:31:30.953Z,19057.88
2022-11-12T03:33:59.056Z,19076.16
2022-11-12T03:36:27.196Z,19086.31
2022-11-12T03:38:55.288Z,19106.66
2022-11-12T03:41:23.396Z,19098.50
2022-11-12T03:43:51.472Z,19049.75
2022-11-12T03:46:20.946Z,19076.16
2022-11-12T03:48:49.029Z,19082.25
2022-11-12T03:51:18.558Z,19076.16
2022-11-12T03:53:46.635Z,19102.56
2022-11-12T03:56:14.756Z,19108.69
2022-11-12T03:58:42.840Z,19082.25
2022-11-12T04:01:10.910Z,19086.31
2022-11-12T04:03:40.493Z,19086.31
2022-11-12T04:06:32.449Z,19098.50
2022-11-12T04:09:00.515Z,19063.97
2022-11-12T04:11:28.589Z,19057.88
2022-11-12T04:13:55.704Z,19078.19
2022-11-12T04:16:42.155Z,19057.88
2022-11-12T04:19:43.440Z,19074.13
2022-11-12T04:22:12.924Z,19080.22
2022-11-12T04:25:01.340Z,19063.97
2022-11-12T04:27:31.891Z,19025.38
2022-11-12T04:30:18.804Z,19047.72
2022-11-12T04:32:54.461Z,19055.84
2022-11-12T04:35:26.353Z,19029.44
2022-11-12T04:37:55.156Z,19041.63
2022-11-12T04:40:43.516Z,19086.31
2022-11-12T04:43:30.999Z,19041.63
2022-11-12T04:46:00.914Z,19049.75
2022-11-12T04:48:29.973Z,19045.69
2022-11-12T04:51:03.062Z,19043.66
2022-11-12T04:53:32.127Z,19057.88
2022-11-12T04:56:00.834Z,19000.97
2022-11-12T04:58:29.329Z,19035.53
2022-11-12T05:00:57.716Z,19041.63
2022-11-12T05:03:25.949Z,19047.72
2022-11-12T05:05:53.999Z,19015.19
2022-11-12T05:08:23.825Z,19017.25
2022-11-12T05:10:52.057Z,19049.75
2022-11-12T05:13:20.140Z,19049.75
2022-11-12T05:15:48.242Z,19033.50
2022-11-12T05:18:16.347Z,19039.59
2022-11-12T05:20:44.447Z,18998.94
2022-11-12T05:23:12.557Z,19011.13
2022-11-12T05:25:42.018Z,19029.44
2022-11-12T05:28:10.087Z,18994.88
2022-11-12T05:30:38.168Z,19013.16
2022-11-12T05:33:06.287Z,19025.38
2022-11-12T05:35:34.402Z,19013.16
2022-11-12T05:38:02.483Z,18990.81
2022-11-12T05:40:30.562Z,19021.31
2022-11-12T05:42:59.972Z,19017.25
2022-11-12T05:45:28.079Z,19000.97
2022-11-12T05:47:56.155Z,19015.19
2022-11-12T05:50:24.267Z,19039.59
2022-11-12T05:52:52.923Z,18990.81
2022-11-12T05:55:21.032Z,19007.06
2022-11-12T05:57:49.112Z,18984.72
2022-11-12T06:00:19.497Z,19009.09
2022-11-12T06:02:47.731Z,18984.72
2022-11-12T06:05:16.025Z,18954.25
2022-11-12T06:07:44.119Z,19000.97
2022-11-12T06:10:17.469Z,18988.78
2022-11-12T06:12:48.321Z,19005.03
2022-11-12T06:15:17.915Z,18974.56
2022-11-12T06:17:46.138Z,18998.94
2022-11-12T06:20:14.902Z,18994.88
2022-11-12T06:22:43.008Z,19005.03
2022-11-12T06:25:11.163Z,18976.59
2022-11-12T06:27:39.219Z,18992.84
2022-11-12T06:30:10.075Z,19015.19
2022-11-12T06:32:39.539Z,19000.97
2022-11-12T06:35:08.928Z,18980.66
2022-11-12T06:37:37.044Z,18954.25
2022-11-12T06:40:06.171Z,18990.81
2022-11-12T06:42:34.632Z,18980.66
2022-11-12T06:45:02.774Z,18994.88
2022-11-12T06:47:30.888Z,18976.59
2022-11-12T06:50:00.720Z,18982.69
2022-11-12T06:52:28.767Z,19033.50
2022-11-12T06:54:56.848Z,19023.34
2022-11-12T06:57:24.994Z,19000.97
2022-11-12T06:59:53.100Z,19003.00
2022-11-12T07:02:21.222Z,19013.16
2022-11-12T07:04:49.332Z,18996.91
2022-11-12T07:07:18.901Z,19005.03
2022-11-12T07:09:47.027Z,19011.13
2022-11-12T07:12:15.237Z,19003.00
2022-11-12T07:14:43.318Z,18988.78
2022-11-12T07:17:11.403Z,19003.00
2022-11-12T07:19:39.482Z,19011.13
2022-11-12T07:22:07.561Z,19025.38
2022-11-12T07:24:37.015Z,19011.13
2022-11-12T07:27:05.349Z,19037.56
2022-11-12T07:29:46.865Z,19066.00
2022-11-12T07:32:16.396Z,19045.69
2022-11-12T07:34:44.532Z,19068.03
2022-11-12T07:37:12.599Z,19063.97
2022-11-12T07:39:42.118Z,19051.78
2022-11-12T07:42:10.225Z,19084.28
2022-11-12T07:44:38.356Z,19104.59
2022-11-12T07:47:06.515Z,19102.56
2022-11-12T07:49:34.601Z,19110.72
2022-11-12T07:52:02.789Z,19122.91
2022-11-12T07:54:30.910Z,19141.19
2022-11-12T07:57:00.381Z,19163.53
2022-11-12T07:59:28.513Z,19185.88
2022-11-12T08:01:56.814Z,19183.84
2022-11-12T08:04:24.955Z,19187.91
2022-11-12T08:06:53.490Z,19236.69
2022-11-12T08:09:21.643Z,19242.78
2022-11-12T08:11:49.765Z,19265.13
2022-11-12T08:14:19.202Z,19265.13
2022-11-12T08:16:47.659Z,19291.56
2022-11-12T08:19:15.754Z,19295.63
2022-11-12T08:21:44.544Z,19275.31
2022-11-12T08:24:12.862Z,19301.72
2022-11-12T08:26:40.989Z,19338.28
2022-11-12T08:29:09.346Z,19317.97
2022-11-12T08:31:38.962Z,19366.75
2022-11-12T08:34:15.065Z,19354.56
2022-11-12T08:36:45.482Z,19380.97
2022-11-12T08:39:13.596Z,19383.00
2022-11-12T08:41:41.691Z,19419.59
2022-11-12T08:44:09.747Z,19441.94
2022-11-12T08:46:39.286Z,19435.84
2022-11-12T08:49:07.380Z,19452.09
2022-11-12T08:51:35.515Z,19470.38
2022-11-12T08:54:03.651Z,19464.28
2022-11-12T08:56:31.918Z,19515.09
2022-11-12T08:59:03.744Z,19547.59
2022-11-12T09:01:34.517Z,19523.22
2022-11-12T09:04:04.055Z,19565.91
2022-11-12T09:06:32.170Z,19626.88
2022-11-12T09:09:00.252Z,19630.94
2022-11-12T09:11:28.370Z,19602.47
2022-11-12T09:13:56.660Z,19614.66
2022-11-12T09:16:25.174Z,19549.63
2022-11-12T09:18:53.243Z,19582.16
2022-11-12T09:21:24.818Z,19580.13
2022-11-12T09:23:53.076Z,19551.69
2022-11-12T09:26:21.213Z,19537.44
2022-11-12T09:28:49.369Z,19523.22
2022-11-12T09:31:17.537Z,19484.59
2022-11-12T09:33:45.657Z,19533.38
2022-11-12T09:36:13.908Z,19484.59
2022-11-12T09:38:43.350Z,19539.47
2022-11-12T09:41:34.099Z,19578.09
2022-11-12T09:44:06.525Z,19576.06
2022-11-12T09:46:46.443Z,19596.38
2022-11-12T09:49:22.108Z,19588.25
2022-11-12T09:51:56.367Z,19598.41
2022-11-12T09:54:29.482Z,19622.81
2022-11-12T09:56:57.741Z,19614.66
2022-11-12T09:59:33.001Z,19626.88
2022-11-12T10:02:24.499Z,19659.38
2022-11-12T10:05:16.637Z,19698.00
2022-11-12T10:08:03.398Z,19716.28
2022-11-12T10:10:46.699Z,19695.97
2022-11-12T10:13:37.265Z,19773.19
2022-11-12T10:16:42.776Z,19783.34
2022-11-12T10:19:42.063Z,19795.53
2022-11-12T10:22:34.656Z,19817.91
2022-11-12T10:25:17.627Z,19824.00
2022-11-12T10:27:49.310Z,19828.06
2022-11-12T10:30:21.025Z,19838.22
2022-11-12T10:32:51.486Z,19799.63
2022-11-12T10:35:24.048Z,19846.34
2022-11-12T10:38:00.038Z,19874.81
2022-11-12T10:40:34.851Z,19913.44
2022-11-12T10:43:07.580Z,19872.78
2022-11-12T10:45:36.282Z,19907.31
2022-11-12T10:48:04.669Z,19876.84
2022-11-12T10:50:41.001Z,19887.00
2022-11-12T10:53:13.419Z,19915.47
2022-11-12T10:55:59.601Z,19854.50
2022-11-12T10:58:29.529Z,19854.50
2022-11-12T11:01:04.922Z,19862.63
2022-11-12T11:03:37.377Z,19832.13
2022-11-12T11:06:08.971Z,19846.34
2022-11-12T11:08:41.492Z,19862.63
2022-11-12T11:11:29.194Z,19876.84
2022-11-12T11:14:25.571Z,19901.22
2022-11-12T11:16:57.603Z,19927.66
2022-11-12T11:19:34.898Z,19994.72
2022-11-12T11:22:24.508Z,20019.13
2022-11-12T11:25:11.496Z,20023.19
2022-11-12T11:27:57.525Z,20017.09
2022-11-12T11:30:27.542Z,19962.19
2022-11-12T11:33:26.732Z,20004.88
2022-11-12T11:36:08.211Z,19905.28
2022-11-12T11:38:57.588Z,19866.69
2022-11-12T11:41:55.542Z,19842.28
2022-11-12T11:44:40.696Z,19826.03
2022-11-12T11:47:34.301Z,19819.94
2022-11-12T11:50:29.101Z,19811.81
2022-11-12T11:53:16.949Z,19821.97
2022-11-12T11:55:57.183Z,19826.03
2022-11-12T11:58:55.530Z,19789.44
2022-11-12T12:01:36.768Z,19787.41
2022-11-12T12:04:43.674Z,19801.66
2022-11-12T12:07:29.017Z,19785.38
2022-11-12T12:10:09.530Z,19789.44
2022-11-12T12:12:56.142Z,19801.66
2022-11-12T12:15:53.260Z,19775.22
2022-11-12T12:18:37.877Z,19773.19
2022-11-12T12:21:16.371Z,19777.25
2022-11-12T12:23:53.095Z,19783.34
2022-11-12T12:26:28.208Z,19793.50
2022-11-12T12:29:03.046Z,19799.63
2022-11-12T12:31:38.419Z,19821.97
2022-11-12T12:34:19.209Z,19830.09
2022-11-12T12:36:55.839Z,19832.13
2022-11-12T12:39:30.719Z,19854.50
2022-11-12T12:42:06.283Z,19868.72
2022-11-12T12:45:01.407Z,19893.09
2022-11-12T12:47:37.681Z,19931.72
2022-11-12T12:50:13.894Z,19891.06
2022-11-12T12:53:04.219Z,19903.25
2022-11-12T12:55:42.361Z,19925.63
2022-11-12T12:58:27.759Z,19876.84
2022-11-12T13:01:04.093Z,19962.19
2022-11-12T13:03:56.337Z,19956.09
2022-11-12T13:06:29.661Z,19960.16
2022-11-12T13:09:07.289Z,19919.53
2022-11-12T13:12:13.574Z,19882.94
2022-11-12T13:15:41.344Z,19917.50
2022-11-12T13:18:16.887Z,19911.41
2022-11-12T13:21:12.160Z,19860.59
2022-11-12T13:24:04.229Z,19903.25
2022-11-12T13:26:56.068Z,19880.91
2022-11-12T13:29:47.381Z,19887.00
2022-11-12T13:32:41.768Z,19848.38
2022-11-12T13:35:29.682Z,19832.13
2022-11-12T13:38:04.075Z,19842.28
2022-11-12T13:40:46.148Z,19832.13
2022-11-12T13:43:34.621Z,19795.53
2022-11-12T13:46:28.727Z,19791.47
2022-11-12T13:49:01.539Z,19789.44
2022-11-12T13:51:41.182Z,19750.84
2022-11-12T13:54:34.274Z,19740.69
2022-11-12T13:57:17.371Z,19773.19
2022-11-12T13:59:47.934Z,19736.59
2022-11-12T14:02:24.040Z,19736.59
2022-11-12T14:04:53.315Z,19756.94
2022-11-12T14:07:44.486Z,19726.44
2022-11-12T14:10:33.972Z,19698.00
2022-11-12T14:13:27.894Z,19722.38
2022-11-12T14:16:23.766Z,19718.31
2022-11-12T14:19:18.199Z,19724.41
2022-11-12T14:22:01.798Z,19716.28
2022-11-12T14:24:33.100Z,19677.66
2022-11-12T14:27:02.546Z,19669.53
2022-11-12T14:29:35.308Z,19620.78
2022-11-12T14:32:09.841Z,19675.63
2022-11-12T14:34:37.987Z,19635.00
2022-11-12T14:37:06.178Z,19643.13
2022-11-12T14:39:35.442Z,19600.44
2022-11-12T14:42:05.199Z,19598.41
2022-11-12T14:44:37.867Z,19620.78
2022-11-12T14:47:06.263Z,19637.03
2022-11-12T14:49:44.023Z,19586.22
2022-11-12T14:52:19.385Z,19574.03
2022-11-12T14:54:54.757Z,19557.78
2022-11-12T14:57:28.125Z,19567.94
2022-11-12T14:59:56.948Z,19553.72
2022-11-12T15:02:52.238Z,19517.13
2022-11-12T15:05:23.414Z,19539.47
2022-11-12T15:07:58.051Z,19488.69
2022-11-12T15:10:33.595Z,19488.69
2022-11-12T15:13:08.005Z,19421.63
2022-11-12T15:15:39.879Z,19435.84
2022-11-12T15:18:17.308Z,19456.16
2022-11-12T15:20:45.564Z,19458.19
2022-11-12T15:23:19.692Z,19460.22
2022-11-12T15:25:59.041Z,19435.84
2022-11-12T15:28:29.123Z,19448.03
2022-11-12T15:31:17.616Z,19452.09
2022-11-12T15:33:45.802Z,19415.50
2022-11-12T15:36:20.485Z,19374.88
2022-11-12T15:38:51.699Z,19376.91
2022-11-12T15:41:30.430Z,19348.47
2022-11-12T15:44:00.893Z,19326.09
2022-11-12T15:46:29.076Z,19311.88
2022-11-12T15:48:57.200Z,19279.38
2022-11-12T15:51:25.348Z,19291.56
2022-11-12T15:53:53.450Z,19265.13
2022-11-12T15:56:22.246Z,19307.81
2022-11-12T15:58:50.481Z,19311.88
2022-11-12T16:01:20.087Z,19352.53
2022-11-12T16:03:48.228Z,19285.47
2022-11-12T16:06:16.370Z,19289.53
2022-11-12T16:08:44.544Z,19291.56
2022-11-12T16:11:28.466Z,19287.50
2022-11-12T16:13:56.655Z,19273.28
2022-11-12T16:16:26.199Z,19244.81
2022-11-12T16:18:54.322Z,19228.56
2022-11-12T16:21:22.452Z,19244.81
2022-11-12T16:23:50.715Z,19250.91
2022-11-12T16:26:26.132Z,19263.09
2022-11-12T16:28:54.243Z,19236.69
2022-11-12T16:31:22.801Z,19271.25
2022-11-12T16:33:52.321Z,19234.66
2022-11-12T16:36:20.751Z,19228.56
2022-11-12T16:38:48.932Z,19214.34
2022-11-12T16:41:17.065Z,19281.41
2022-11-12T16:43:45.180Z,19263.09
2022-11-12T16:46:26.045Z,19214.34
2022-11-12T16:48:55.812Z,19263.09
2022-11-12T16:51:25.457Z,19269.22
2022-11-12T16:53:53.562Z,19244.81
2022-11-12T16:56:23.931Z,19259.03
2022-11-12T16:58:52.085Z,19216.38
2022-11-12T17:01:26.903Z,19183.84
2022-11-12T17:03:57.896Z,19208.25
2022-11-12T17:06:34.862Z,19224.50
2022-11-12T17:09:03.218Z,19212.31
2022-11-12T17:11:31.641Z,19208.25
2022-11-12T17:14:01.105Z,19220.44
2022-11-12T17:16:30.127Z,19228.56
2022-11-12T17:19:02.328Z,19208.25
2022-11-12T17:21:31.243Z,19224.50
2022-11-12T17:23:59.376Z,19189.97
2022-11-12T17:26:27.520Z,19208.25
2022-11-12T17:29:01.072Z,19208.25
2022-11-12T17:31:30.615Z,19218.41
2022-11-12T17:34:00.132Z,19236.69
2022-11-12T17:36:29.206Z,19212.31
2022-11-12T17:38:58.551Z,19236.69
2022-11-12T17:41:28.917Z,19192.00
2022-11-12T17:43:58.129Z,19220.44
2022-11-12T17:46:27.054Z,19236.69
2022-11-12T17:48:56.532Z,19200.13
2022-11-12T17:51:29.463Z,19185.88
2022-11-12T17:53:57.616Z,19177.75
2022-11-12T17:56:26.033Z,19208.25
2022-11-12T17:58:54.653Z,19226.53
2022-11-12T18:01:25.891Z,19192.00
2022-11-12T18:03:57.048Z,19206.22
2022-11-12T18:06:28.863Z,19204.19
2022-11-12T18:08:59.563Z,19257.00
2022-11-12T18:11:29.847Z,19153.38
2022-11-12T18:13:58.296Z,19216.38
2022-11-12T18:16:28.818Z,19163.53
2022-11-12T18:18:58.530Z,19208.25
2022-11-12T18:21:28.893Z,19208.25
2022-11-12T18:23:57.009Z,19218.41
2022-11-12T18:26:25.293Z,19171.66
2022-11-12T18:28:53.969Z,19187.91
2022-11-12T18:31:23.954Z,19208.25
2022-11-12T18:33:52.706Z,19171.66
2022-11-12T18:36:24.185Z,19210.28
2022-11-12T18:38:55.368Z,19198.09
2022-11-12T18:41:26.938Z,19169.63
2022-11-12T18:43:55.860Z,19173.69
2022-11-12T18:46:24.764Z,19147.28
2022-11-12T18:48:52.883Z,19159.47
2022-11-12T18:51:21.280Z,19167.59
2022-11-12T18:53:49.572Z,19177.75
2022-11-12T18:56:21.885Z,19122.91
2022-11-12T18:58:50.367Z,19159.47
2022-11-12T19:01:23.015Z,19133.06
2022-11-12T19:03:56.320Z,19145.25
2022-11-12T19:06:25.654Z,19157.44
2022-11-12T19:08:59.891Z,19159.47
2022-11-12T19:11:29.459Z,19122.91
2022-11-12T19:13:57.702Z,19149.31
2022-11-12T19:16:25.963Z,19145.25
2022-11-12T19:18:54.241Z,19118.84
2022-11-12T19:21:24.874Z,19108.69
2022-11-12T19:23:55.943Z,19141.19
2022-11-12T19:26:24.889Z,19106.66
2022-11-12T19:28:55.123Z,19106.66
2022-11-12T19:31:25.813Z,19080.22
2022-11-12T19:33:53.924Z,19114.78
2022-11-12T19:36:24.818Z,19114.78
2022-11-12T19:38:56.706Z,19141.19
2022-11-12T19:41:25.903Z,19135.09
2022-11-12T19:43:55.795Z,19137.13
2022-11-12T19:46:25.215Z,19126.97
2022-11-12T19:48:53.374Z,19163.53
2022-11-12T19:51:21.554Z,19165.56
2022-11-12T19:53:50.886Z,19139.16
2022-11-12T19:56:21.450Z,19147.28
2022-11-12T19:58:53.489Z,19141.19
2022-11-12T20:01:23.161Z,19116.81
2022-11-12T20:03:51.529Z,19137.13
2022-11-12T20:06:23.312Z,19124.94
2022-11-12T20:08:51.420Z,19161.50
2022-11-12T20:11:19.822Z,19143.22
2022-11-12T20:13:47.955Z,19153.38
2022-11-12T20:16:24.990Z,19133.06
2022-11-12T20:18:56.814Z,19153.38
2022-11-12T20:21:26.586Z,19126.97
2022-11-12T20:23:54.693Z,19133.06
2022-11-12T20:26:23.699Z,19110.72
2022-11-12T20:28:51.851Z,19147.28
2022-11-12T20:31:21.645Z,19143.22
2022-11-12T20:33:51.326Z,19126.97
2022-11-12T20:36:23.037Z,19082.25
2022-11-12T20:38:53.323Z,19124.94
2022-11-12T20:41:23.720Z,19114.78
2022-11-12T20:43:54.457Z,19104.59
2022-11-12T20:46:22.888Z,19118.84
2022-11-12T20:48:51.110Z,19070.06
2022-11-12T20:51:24.964Z,19106.66
2022-11-12T20:53:59.388Z,19074.13
2022-11-12T20:56:30.356Z,19078.19
2022-11-12T20:58:59.713Z,19070.06
2022-11-12T21:01:30.386Z,19037.56
2022-11-12T21:03:59.327Z,19090.38
2022-11-12T21:06:30.088Z,19057.88
2022-11-12T21:09:00.621Z,19049.75
2022-11-12T21:11:28.806Z,19049.75
2022-11-12T21:13:56.984Z,19057.88
2022-11-12T21:16:25.409Z,19059.91
2022-11-12T21:18:53.503Z,19059.91
2022-11-12T21:21:21.857Z,19031.47
2022-11-12T21:23:53.875Z,19033.50
2022-11-12T21:26:23.792Z,19053.81
2022-11-12T21:28:53.920Z,19029.44
2022-11-12T21:31:24.767Z,19072.09
2022-11-12T21:33:55.305Z,19068.03
2022-11-12T21:36:23.997Z,19045.69
2022-11-12T21:38:53.488Z,19031.47
2022-11-12T21:41:24.889Z,19059.91
2022-11-12T21:43:53.524Z,19031.47
2022-11-12T21:46:24.679Z,19041.63
2022-11-12T21:48:55.748Z,19063.97
2022-11-12T21:51:26.614Z,19053.81
2022-11-12T21:53:58.398Z,19045.69
2022-11-12T21:56:27.664Z,19041.63
2022-11-12T21:58:59.382Z,19051.78
2022-11-12T22:01:30.232Z,19021.31
2022-11-12T22:03:59.866Z,19049.75
2022-11-12T22:06:33.934Z,19059.91
2022-11-12T22:09:03.628Z,19049.75
2022-11-12T22:11:31.980Z,19051.78
2022-11-12T22:14:00.144Z,19041.63
2022-11-12T22:16:30.509Z,19080.22
2022-11-12T22:19:00.448Z,19009.09
2022-11-12T22:21:34.256Z,19045.69
2022-11-12T22:24:10.542Z,19029.44
2022-11-12T22:26:38.825Z,19043.66
2022-11-12T22:29:07.134Z,19039.59
2022-11-12T22:31:35.273Z,19049.75
2022-11-12T22:34:04.266Z,19055.84
2022-11-12T22:36:35.818Z,19011.13
2022-11-12T22:39:07.328Z,19027.41
2022-11-12T22:41:35.446Z,19047.72
2022-11-12T22:44:04.661Z,19013.16
2022-11-12T22:46:35.984Z,19019.28
2022-11-12T22:49:05.882Z,19009.09
2022-11-12T22:51:35.446Z,19009.09
2022-11-12T22:54:06.578Z,18984.72
2022-11-12T22:56:36.752Z,18988.78
2022-11-12T22:59:05.081Z,19013.16
2022-11-12T23:01:36.179Z,18984.72
2022-11-12T23:04:07.266Z,18994.88
2022-11-12T23:06:35.824Z,18958.31
2022-11-12T23:09:05.849Z,18996.91
2022-11-12T23:11:37.514Z,18978.63
2022-11-12T23:14:05.659Z,19003.00
2022-11-12T23:16:35.228Z,19000.97
2022-11-12T23:19:03.766Z,18998.94
2022-11-12T23:21:32.271Z,18976.59
2022-11-12T23:24:00.893Z,18964.41
2022-11-12T23:26:32.107Z,18968.47
2022-11-12T23:29:02.365Z,18988.78
2022-11-12T23:31:32.326Z,18940.03
2022-11-12T23:34:01.312Z,18954.25
2022-11-12T23:36:30.482Z,18960.34
2022-11-12T23:38:59.938Z,18978.63
2022-11-12T23:41:28.930Z,18996.91
2022-11-12T23:43:59.019Z,18950.19
2022-11-12T23:46:28.532Z,18968.47
2022-11-12T23:48:57.026Z,18988.78
2022-11-12T23:51:25.880Z,18956.28
2022-11-12T23:53:54.039Z,18935.97
2022-11-12T23:56:22.182Z,18919.69
2022-11-12T23:58:50.296Z,18933.94
